Meteo Giornale » Osservazioni meteo Italia » Lecce

ore: 12:55 - Osservazioni Meteo Lecce
Lat. 40° 14' N Lon. 18° 9' E Alt. 48 metri s.l.m.

poco_nuvoloso Europe/Rome

25 °C

Poco Nuvoloso

Temp. 24 Ore

13 °C

25 °C

Nord

3.7 Km/h

Dew point 16 °C

Umidità 57 %

Visibilità  10 Km

Il sole sorge alle ore 07:00

Il sole tramonta alle ore 18:04

Data e Ora Cielo e Fenomeni T °C DP °C Um. % Pres. hPa Vis. km Vento km/h
Oggi h: 12:55 poco_nuvoloso Poco Nuvoloso 25 16 57 1014 10 N 3.7
Oggi h: 11:55 sereno Sereno 24 17 64 1015 10 N 3.7
Oggi h: 10:55 foschia Foschia 22 20 88 1015 5 N 5.5
Oggi h: 09:55 foschia Foschia 19 18 93 1015 4 N 1.8
Oggi h: 08:55 foschia Foschia 15 14 93 1015 2 N 1.8
Oggi h: 07:55 nebbia Nebbia 14 13 93 1015 0.2 N 1.8
Oggi h: 06:55 nebbia Nebbia 14 13 93 1015 0.1 N 0
Oggi h: 05:55 nebbia Nebbia 14 13 93 1015 0.1 N 0
Oggi h: 04:55 nebbia Nebbia 13 12 93 1015 0.1 N 1.8
Oggi h: 03:55 nebbia Nebbia 13 12 93 1015 0.2 N 1.8
Oggi h: 02:55 foschia Foschia 13 12 93 1016 3 N 3.7
Oggi h: 01:55 nuvoloso Nuvoloso 14 13 93 1016 7 N 3.7
Oggi h: 00:55 sereno Sereno 14 14 100 1016 10 N 1.8
Ieri h: 23:55 sereno Sereno 15 14 93 1016 10 N 1.8
Ieri h: 22:55 sereno Sereno 16 15 93 1017 10 N 3.7
Ieri h: 21:55 sereno Sereno 17 16 93 1016 10 N 1.8
Ieri h: 20:55 sereno Sereno 18 16 88 1016 10 N 3.7
Ieri h: 19:55 sereno Sereno 18 17 93 1016 10 N 1.8
Ieri h: 18:55 poco_nuvoloso Poco Nuvoloso 19 17 88 1016 10 N 5.5
Ieri h: 16:55 nuvoloso Nuvoloso 23 17 68 1016 10 O 7.4